sensor_id;sensor_type;location;lat;lon;timestamp;pressure;altitude;pressure_sealevel;temperature;humidity
51147;BME280;37207;53.060;18.726;2023-03-13T00:01:41;99994.87;;;1.12;74.58
51147;BME280;37207;53.060;18.726;2023-03-13T00:04:10;99992.98;;;1.13;74.64
51147;BME280;37207;53.060;18.726;2023-03-13T00:06:38;99992.88;;;1.14;74.66
51147;BME280;37207;53.060;18.726;2023-03-13T00:09:07;99996.97;;;1.15;74.25
51147;BME280;37207;53.060;18.726;2023-03-13T00:11:34;99992.17;;;1.17;74.13
51147;BME280;37207;53.060;18.726;2023-03-13T00:14:02;99988.94;;;1.18;73.79
51147;BME280;37207;53.060;18.726;2023-03-13T00:16:30;99988.90;;;1.20;73.87
51147;BME280;37207;53.060;18.726;2023-03-13T00:18:57;99986.06;;;1.21;73.76
51147;BME280;37207;53.060;18.726;2023-03-13T00:21:26;99978.61;;;1.22;73.86
51147;BME280;37207;53.060;18.726;2023-03-13T00:23:53;99969.05;;;1.23;74.21
51147;BME280;37207;53.060;18.726;2023-03-13T00:26:23;99955.55;;;1.22;74.35
51147;BME280;37207;53.060;18.726;2023-03-13T00:28:51;99958.64;;;1.21;74.27
51147;BME280;37207;53.060;18.726;2023-03-13T00:31:20;99955.01;;;1.20;74.65
51147;BME280;37207;53.060;18.726;2023-03-13T00:33:54;99957.51;;;1.19;74.49
51147;BME280;37207;53.060;18.726;2023-03-13T00:36:25;99957.01;;;1.21;74.17
51147;BME280;37207;53.060;18.726;2023-03-13T00:38:53;99943.96;;;1.21;74.09
51147;BME280;37207;53.060;18.726;2023-03-13T00:41:23;99931.67;;;1.22;73.89
51147;BME280;37207;53.060;18.726;2023-03-13T00:43:50;99945.08;;;1.23;74.09
51147;BME280;37207;53.060;18.726;2023-03-13T00:46:19;99942.83;;;1.23;74.27
51147;BME280;37207;53.060;18.726;2023-03-13T00:48:47;99943.86;;;1.23;74.14
51147;BME280;37207;53.060;18.726;2023-03-13T00:51:15;99941.11;;;1.23;74.26
51147;BME280;37207;53.060;18.726;2023-03-13T00:53:43;99934.43;;;1.23;74.05
51147;BME280;37207;53.060;18.726;2023-03-13T00:56:12;99928.69;;;1.23;73.92
51147;BME280;37207;53.060;18.726;2023-03-13T00:58:41;99926.45;;;1.23;74.29
51147;BME280;37207;53.060;18.726;2023-03-13T01:01:11;99932.89;;;1.23;74.17
51147;BME280;37207;53.060;18.726;2023-03-13T01:03:39;99927.62;;;1.22;74.25
51147;BME280;37207;53.060;18.726;2023-03-13T01:06:10;99928.10;;;1.22;74.27
51147;BME280;37207;53.060;18.726;2023-03-13T01:08:37;99933.23;;;1.22;74.40
51147;BME280;37207;53.060;18.726;2023-03-13T01:11:16;99926.55;;;1.21;74.42
51147;BME280;37207;53.060;18.726;2023-03-13T01:13:43;99916.55;;;1.21;74.38
51147;BME280;37207;53.060;18.726;2023-03-13T01:16:13;99912.20;;;1.21;74.29
51147;BME280;37207;53.060;18.726;2023-03-13T01:18:43;99912.48;;;1.20;74.28
51147;BME280;37207;53.060;18.726;2023-03-13T01:21:12;99914.35;;;1.20;74.52
51147;BME280;37207;53.060;18.726;2023-03-13T01:23:39;99907.67;;;1.20;74.39
51147;BME280;37207;53.060;18.726;2023-03-13T01:26:07;99905.58;;;1.20;74.40
51147;BME280;37207;53.060;18.726;2023-03-13T01:28:35;99906.19;;;1.20;74.49
51147;BME280;37207;53.060;18.726;2023-03-13T01:33:49;99903.44;;;1.21;74.59
51147;BME280;37207;53.060;18.726;2023-03-13T01:36:16;99899.84;;;1.21;74.77
51147;BME280;37207;53.060;18.726;2023-03-13T01:38:48;99897.16;;;1.21;74.92
51147;BME280;37207;53.060;18.726;2023-03-13T01:41:15;99894.91;;;1.22;74.64
51147;BME280;37207;53.060;18.726;2023-03-13T01:43:43;99889.08;;;1.22;74.83
51147;BME280;37207;53.060;18.726;2023-03-13T01:49:11;99890.30;;;1.23;75.02
51147;BME280;37207;53.060;18.726;2023-03-13T01:54:23;99889.40;;;1.24;75.11
51147;BME280;37207;53.060;18.726;2023-03-13T01:56:58;99884.56;;;1.24;75.26
51147;BME280;37207;53.060;18.726;2023-03-13T01:59:30;99879.10;;;1.25;75.46
51147;BME280;37207;53.060;18.726;2023-03-13T02:01:59;99881.89;;;1.25;75.69
51147;BME280;37207;53.060;18.726;2023-03-13T02:04:30;99879.86;;;1.26;76.08
51147;BME280;37207;53.060;18.726;2023-03-13T02:07:04;99881.60;;;1.27;76.19
51147;BME280;37207;53.060;18.726;2023-03-13T02:09:34;99881.13;;;1.27;76.22
51147;BME280;37207;53.060;18.726;2023-03-13T02:12:31;99879.27;;;1.27;76.63
51147;BME280;37207;53.060;18.726;2023-03-13T02:15:06;99875.27;;;1.28;76.60
51147;BME280;37207;53.060;18.726;2023-03-13T02:17:35;99876.80;;;1.29;77.00
51147;BME280;37207;53.060;18.726;2023-03-13T02:20:02;99876.70;;;1.29;77.25
51147;BME280;37207;53.060;18.726;2023-03-13T02:25:29;99873.02;;;1.31;77.87
51147;BME280;37207;53.060;18.726;2023-03-13T02:28:02;99872.83;;;1.32;78.21
51147;BME280;37207;53.060;18.726;2023-03-13T02:30:30;99868.63;;;1.32;78.26
51147;BME280;37207;53.060;18.726;2023-03-13T02:32:59;99867.77;;;1.32;78.75
51147;BME280;37207;53.060;18.726;2023-03-13T02:35:28;99866.56;;;1.33;78.86
51147;BME280;37207;53.060;18.726;2023-03-13T02:38:00;99863.60;;;1.34;79.21
51147;BME280;37207;53.060;18.726;2023-03-13T02:40:30;99861.70;;;1.34;79.28
51147;BME280;37207;53.060;18.726;2023-03-13T02:43:00;99854.77;;;1.35;79.27
51147;BME280;37207;53.060;18.726;2023-03-13T02:45:28;99847.38;;;1.35;79.32
51147;BME280;37207;53.060;18.726;2023-03-13T02:47:55;99848.52;;;1.35;79.77
51147;BME280;37207;53.060;18.726;2023-03-13T02:50:22;99848.77;;;1.35;79.82
51147;BME280;37207;53.060;18.726;2023-03-13T02:52:54;99850.16;;;1.35;79.61
51147;BME280;37207;53.060;18.726;2023-03-13T02:55:30;99849.56;;;1.35;79.69
51147;BME280;37207;53.060;18.726;2023-03-13T02:57:58;99846.91;;;1.35;79.79
51147;BME280;37207;53.060;18.726;2023-03-13T03:00:24;99847.16;;;1.35;80.17
51147;BME280;37207;53.060;18.726;2023-03-13T03:02:52;99845.83;;;1.35;80.20
51147;BME280;37207;53.060;18.726;2023-03-13T03:05:19;99850.76;;;1.34;80.49
51147;BME280;37207;53.060;18.726;2023-03-13T03:07:48;99847.16;;;1.34;80.33
51147;BME280;37207;53.060;18.726;2023-03-13T03:10:16;99844.05;;;1.35;80.41
51147;BME280;37207;53.060;18.726;2023-03-13T03:12:43;99844.59;;;1.35;80.66
51147;BME280;37207;53.060;18.726;2023-03-13T03:15:10;99841.87;;;1.35;80.93
51147;BME280;37207;53.060;18.726;2023-03-13T03:17:38;99833.73;;;1.34;81.07
51147;BME280;37207;53.060;18.726;2023-03-13T03:20:05;99835.81;;;1.34;81.11
51147;BME280;37207;53.060;18.726;2023-03-13T03:22:38;99833.55;;;1.34;81.22
51147;BME280;37207;53.060;18.726;2023-03-13T03:25:07;99837.99;;;1.34;81.44
51147;BME280;37207;53.060;18.726;2023-03-13T03:27:34;99841.98;;;1.34;81.72
51147;BME280;37207;53.060;18.726;2023-03-13T03:30:04;99836.48;;;1.33;81.86
51147;BME280;37207;53.060;18.726;2023-03-13T03:32:32;99838.11;;;1.33;82.10
51147;BME280;37207;53.060;18.726;2023-03-13T03:34:59;99834.84;;;1.33;81.76
51147;BME280;37207;53.060;18.726;2023-03-13T03:37:25;99837.34;;;1.33;81.95
51147;BME280;37207;53.060;18.726;2023-03-13T03:39:52;99830.19;;;1.33;82.07
51147;BME280;37207;53.060;18.726;2023-03-13T03:42:18;99823.33;;;1.33;82.28
51147;BME280;37207;53.060;18.726;2023-03-13T03:44:45;99819.09;;;1.34;82.16
51147;BME280;37207;53.060;18.726;2023-03-13T03:47:12;99815.36;;;1.35;82.41
51147;BME280;37207;53.060;18.726;2023-03-13T03:49:41;99813.79;;;1.35;82.19
51147;BME280;37207;53.060;18.726;2023-03-13T03:52:09;99806.39;;;1.36;82.61
51147;BME280;37207;53.060;18.726;2023-03-13T03:54:38;99802.01;;;1.36;82.75
51147;BME280;37207;53.060;18.726;2023-03-13T03:57:04;99799.41;;;1.37;82.86
51147;BME280;37207;53.060;18.726;2023-03-13T03:59:31;99794.95;;;1.38;83.03
51147;BME280;37207;53.060;18.726;2023-03-13T04:02:03;99795.40;;;1.38;83.29
51147;BME280;37207;53.060;18.726;2023-03-13T04:04:30;99797.36;;;1.40;83.31
51147;BME280;37207;53.060;18.726;2023-03-13T04:07:04;99797.02;;;1.40;83.29
51147;BME280;37207;53.060;18.726;2023-03-13T04:09:31;99787.37;;;1.43;83.12
51147;BME280;37207;53.060;18.726;2023-03-13T04:11:58;99785.33;;;1.44;83.60
51147;BME280;37207;53.060;18.726;2023-03-13T04:14:25;99789.88;;;1.45;83.68
51147;BME280;37207;53.060;18.726;2023-03-13T04:16:51;99787.17;;;1.44;83.80
51147;BME280;37207;53.060;18.726;2023-03-13T04:19:18;99782.67;;;1.45;83.87
51147;BME280;37207;53.060;18.726;2023-03-13T04:21:45;99784.30;;;1.44;84.22
51147;BME280;37207;53.060;18.726;2023-03-13T04:24:15;99773.33;;;1.45;84.27
51147;BME280;37207;53.060;18.726;2023-03-13T04:26:42;99764.68;;;1.45;84.43
51147;BME280;37207;53.060;18.726;2023-03-13T04:29:09;99772.88;;;1.44;84.55
51147;BME280;37207;53.060;18.726;2023-03-13T04:31:54;99768.70;;;1.44;84.78
51147;BME280;37207;53.060;18.726;2023-03-13T04:34:39;99765.39;;;1.43;84.61
51147;BME280;37207;53.060;18.726;2023-03-13T04:37:12;99764.23;;;1.42;84.99
51147;BME280;37207;53.060;18.726;2023-03-13T04:39:59;99765.45;;;1.40;85.49
51147;BME280;37207;53.060;18.726;2023-03-13T04:42:55;99768.27;;;1.40;85.08
51147;BME280;37207;53.060;18.726;2023-03-13T04:45:40;99769.91;;;1.40;85.35
51147;BME280;37207;53.060;18.726;2023-03-13T04:48:20;99766.33;;;1.40;85.38
51147;BME280;37207;53.060;18.726;2023-03-13T04:51:23;99764.34;;;1.41;85.60
51147;BME280;37207;53.060;18.726;2023-03-13T04:53:58;99767.02;;;1.43;85.57
51147;BME280;37207;53.060;18.726;2023-03-13T04:56:34;99770.84;;;1.45;85.53
51147;BME280;37207;53.060;18.726;2023-03-13T04:59:20;99768.38;;;1.46;86.14
51147;BME280;37207;53.060;18.726;2023-03-13T05:01:58;99761.10;;;1.47;85.38
51147;BME280;37207;53.060;18.726;2023-03-13T05:04:37;99762.84;;;1.49;86.00
51147;BME280;37207;53.060;18.726;2023-03-13T05:07:16;99761.22;;;1.51;86.13
51147;BME280;37207;53.060;18.726;2023-03-13T05:10:11;99751.74;;;1.53;86.38
51147;BME280;37207;53.060;18.726;2023-03-13T05:12:56;99749.10;;;1.55;86.42
51147;BME280;37207;53.060;18.726;2023-03-13T05:15:37;99749.09;;;1.57;86.75
51147;BME280;37207;53.060;18.726;2023-03-13T05:18:22;99744.27;;;1.59;86.62
51147;BME280;37207;53.060;18.726;2023-03-13T05:21:04;99743.14;;;1.62;86.65
51147;BME280;37207;53.060;18.726;2023-03-13T05:23:50;99741.47;;;1.65;86.76
51147;BME280;37207;53.060;18.726;2023-03-13T05:26:29;99739.77;;;1.67;87.18
51147;BME280;37207;53.060;18.726;2023-03-13T05:29:22;99736.11;;;1.69;87.28
51147;BME280;37207;53.060;18.726;2023-03-13T05:32:04;99730.11;;;1.72;87.03
51147;BME280;37207;53.060;18.726;2023-03-13T05:34:41;99732.10;;;1.74;87.27
51147;BME280;37207;53.060;18.726;2023-03-13T05:37:26;99728.40;;;1.78;87.46
51147;BME280;37207;53.060;18.726;2023-03-13T05:40:03;99723.45;;;1.81;87.53
51147;BME280;37207;53.060;18.726;2023-03-13T05:42:45;99719.11;;;1.83;87.31
51147;BME280;37207;53.060;18.726;2023-03-13T05:45:30;99717.95;;;1.85;87.67
51147;BME280;37207;53.060;18.726;2023-03-13T05:48:00;99714.75;;;1.87;87.75
51147;BME280;37207;53.060;18.726;2023-03-13T05:50:41;99714.98;;;1.90;87.41
51147;BME280;37207;53.060;18.726;2023-03-13T05:53:27;99716.27;;;1.92;87.78
51147;BME280;37207;53.060;18.726;2023-03-13T05:56:04;99715.46;;;1.95;88.00
51147;BME280;37207;53.060;18.726;2023-03-13T05:58:56;99709.85;;;1.97;87.89
51147;BME280;37207;53.060;18.726;2023-03-13T06:01:49;99709.59;;;2.00;87.74
51147;BME280;37207;53.060;18.726;2023-03-13T06:04:24;99706.06;;;2.03;87.70
51147;BME280;37207;53.060;18.726;2023-03-13T06:06:51;99698.90;;;2.05;87.81
51147;BME280;37207;53.060;18.726;2023-03-13T06:09:19;99699.92;;;2.08;88.26
51147;BME280;37207;53.060;18.726;2023-03-13T06:11:46;99699.20;;;2.10;88.38
51147;BME280;37207;53.060;18.726;2023-03-13T06:14:12;99703.77;;;2.13;88.11
51147;BME280;37207;53.060;18.726;2023-03-13T06:17:04;99705.44;;;2.16;88.48
51147;BME280;37207;53.060;18.726;2023-03-13T06:19:30;99702.78;;;2.19;88.55
51147;BME280;37207;53.060;18.726;2023-03-13T06:21:57;99697.11;;;2.21;88.53
51147;BME280;37207;53.060;18.726;2023-03-13T06:24:24;99698.33;;;2.23;88.60
51147;BME280;37207;53.060;18.726;2023-03-13T06:26:50;99695.86;;;2.26;88.92
51147;BME280;37207;53.060;18.726;2023-03-13T06:29:17;99693.02;;;2.30;88.96
51147;BME280;37207;53.060;18.726;2023-03-13T06:31:44;99688.45;;;2.35;89.18
51147;BME280;37207;53.060;18.726;2023-03-13T06:34:11;99689.95;;;2.38;89.15
51147;BME280;37207;53.060;18.726;2023-03-13T06:36:38;99685.42;;;2.43;89.37
51147;BME280;37207;53.060;18.726;2023-03-13T06:39:05;99678.29;;;2.49;89.76
51147;BME280;37207;53.060;18.726;2023-03-13T06:41:31;99672.60;;;2.54;89.62
51147;BME280;37207;53.060;18.726;2023-03-13T06:43:58;99667.64;;;2.59;89.56
51147;BME280;37207;53.060;18.726;2023-03-13T06:46:25;99670.16;;;2.64;89.64
51147;BME280;37207;53.060;18.726;2023-03-13T06:48:51;99667.70;;;2.69;89.83
51147;BME280;37207;53.060;18.726;2023-03-13T06:51:20;99670.30;;;2.74;89.86
51147;BME280;37207;53.060;18.726;2023-03-13T06:53:47;99670.09;;;2.78;90.09
51147;BME280;37207;53.060;18.726;2023-03-13T06:56:14;99667.52;;;2.82;90.16
51147;BME280;37207;53.060;18.726;2023-03-13T06:58:40;99661.86;;;2.87;90.07
51147;BME280;37207;53.060;18.726;2023-03-13T07:01:12;99661.40;;;2.92;90.23
51147;BME280;37207;53.060;18.726;2023-03-13T07:03:39;99656.88;;;2.98;90.42
51147;BME280;37207;53.060;18.726;2023-03-13T07:06:10;99654.73;;;3.02;90.43
51147;BME280;37207;53.060;18.726;2023-03-13T07:08:37;99654.58;;;3.08;90.35
51147;BME280;37207;53.060;18.726;2023-03-13T07:11:07;99649.89;;;3.13;90.68
51147;BME280;37207;53.060;18.726;2023-03-13T07:13:34;99646.81;;;3.19;90.79
51147;BME280;37207;53.060;18.726;2023-03-13T07:16:04;99646.81;;;3.25;90.89
51147;BME280;37207;53.060;18.726;2023-03-13T07:18:32;99642.48;;;3.30;90.82
51147;BME280;37207;53.060;18.726;2023-03-13T07:21:00;99640.70;;;3.37;90.81
51147;BME280;37207;53.060;18.726;2023-03-13T07:23:30;99634.95;;;3.45;91.05
51147;BME280;37207;53.060;18.726;2023-03-13T07:26:06;99626.89;;;3.53;91.21
51147;BME280;37207;53.060;18.726;2023-03-13T07:28:33;99618.06;;;3.62;91.22
51147;BME280;37207;53.060;18.726;2023-03-13T07:31:13;99614.25;;;3.71;91.32
51147;BME280;37207;53.060;18.726;2023-03-13T07:33:40;99608.27;;;3.81;91.47
51147;BME280;37207;53.060;18.726;2023-03-13T07:36:08;99605.86;;;3.93;91.50
51147;BME280;37207;53.060;18.726;2023-03-13T07:38:35;99599.28;;;4.06;91.72
51147;BME280;37207;53.060;18.726;2023-03-13T07:41:03;99592.63;;;4.21;91.69
51147;BME280;37207;53.060;18.726;2023-03-13T07:43:30;99589.05;;;4.33;91.63
51147;BME280;37207;53.060;18.726;2023-03-13T07:46:01;99587.97;;;4.51;91.60
51147;BME280;37207;53.060;18.726;2023-03-13T07:48:31;99585.87;;;4.70;91.66
51147;BME280;37207;53.060;18.726;2023-03-13T07:50:58;99583.48;;;4.91;91.48
51147;BME280;37207;53.060;18.726;2023-03-13T07:53:26;99584.15;;;5.20;91.25
51147;BME280;37207;53.060;18.726;2023-03-13T07:55:59;99578.67;;;5.45;91.27
51147;BME280;37207;53.060;18.726;2023-03-13T07:58:29;99573.38;;;5.67;91.04
51147;BME280;37207;53.060;18.726;2023-03-13T08:00:56;99565.94;;;5.86;90.81
51147;BME280;37207;53.060;18.726;2023-03-13T08:03:24;99558.59;;;5.99;90.45
51147;BME280;37207;53.060;18.726;2023-03-13T08:05:59;99554.66;;;6.08;90.36
51147;BME280;37207;53.060;18.726;2023-03-13T08:08:27;99558.30;;;6.12;90.23
51147;BME280;37207;53.060;18.726;2023-03-13T08:10:59;99552.67;;;6.16;89.98
51147;BME280;37207;53.060;18.726;2023-03-13T08:13:25;99543.20;;;6.20;90.29
51147;BME280;37207;53.060;18.726;2023-03-13T08:16:00;99539.45;;;6.23;90.03
51147;BME280;37207;53.060;18.726;2023-03-13T08:18:27;99540.35;;;6.24;89.95
51147;BME280;37207;53.060;18.726;2023-03-13T08:20:53;99534.05;;;6.24;90.03
51147;BME280;37207;53.060;18.726;2023-03-13T08:23:20;99538.21;;;6.26;89.84
51147;BME280;37207;53.060;18.726;2023-03-13T08:25:46;99535.60;;;6.27;90.02
51147;BME280;37207;53.060;18.726;2023-03-13T08:28:13;99529.87;;;6.32;89.86
51147;BME280;37207;53.060;18.726;2023-03-13T08:30:40;99527.43;;;6.36;90.03
51147;BME280;37207;53.060;18.726;2023-03-13T08:33:06;99531.46;;;6.42;89.94
51147;BME280;37207;53.060;18.726;2023-03-13T08:35:32;99522.27;;;6.49;89.77
51147;BME280;37207;53.060;18.726;2023-03-13T08:37:59;99518.66;;;6.56;89.84
51147;BME280;37207;53.060;18.726;2023-03-13T08:40:26;99512.86;;;6.62;89.79
51147;BME280;37207;53.060;18.726;2023-03-13T08:42:53;99514.38;;;6.68;89.58
51147;BME280;37207;53.060;18.726;2023-03-13T08:45:19;99511.50;;;6.76;89.54
51147;BME280;37207;53.060;18.726;2023-03-13T08:47:51;99510.10;;;6.81;89.46
51147;BME280;37207;53.060;18.726;2023-03-13T08:50:18;99506.76;;;6.86;89.33
51147;BME280;37207;53.060;18.726;2023-03-13T08:52:45;99500.75;;;6.90;89.24
51147;BME280;37207;53.060;18.726;2023-03-13T08:55:11;99501.92;;;6.93;89.03
51147;BME280;37207;53.060;18.726;2023-03-13T08:57:38;99502.78;;;6.95;89.18
51147;BME280;37207;53.060;18.726;2023-03-13T09:00:05;99500.86;;;6.98;88.81
51147;BME280;37207;53.060;18.726;2023-03-13T09:02:32;99499.86;;;6.98;88.58
51147;BME280;37207;53.060;18.726;2023-03-13T09:04:58;99499.91;;;6.99;88.69
51147;BME280;37207;53.060;18.726;2023-03-13T09:07:25;99500.92;;;6.99;88.73
51147;BME280;37207;53.060;18.726;2023-03-13T09:09:51;99495.54;;;7.00;88.56
51147;BME280;37207;53.060;18.726;2023-03-13T09:12:18;99496.94;;;7.00;88.76
51147;BME280;37207;53.060;18.726;2023-03-13T09:14:44;99490.05;;;7.01;88.80
51147;BME280;37207;53.060;18.726;2023-03-13T09:17:11;99486.98;;;7.02;88.79
51147;BME280;37207;53.060;18.726;2023-03-13T09:19:37;99483.48;;;7.04;88.77
51147;BME280;37207;53.060;18.726;2023-03-13T09:22:04;99477.12;;;7.06;88.90
51147;BME280;37207;53.060;18.726;2023-03-13T09:24:31;99476.69;;;7.09;88.94
51147;BME280;37207;53.060;18.726;2023-03-13T09:26:57;99474.86;;;7.14;89.20
51147;BME280;37207;53.060;18.726;2023-03-13T09:29:24;99465.88;;;7.20;89.17
51147;BME280;37207;53.060;18.726;2023-03-13T09:31:50;99454.58;;;7.26;88.94
51147;BME280;37207;53.060;18.726;2023-03-13T09:34:17;99455.91;;;7.32;89.03
51147;BME280;37207;53.060;18.726;2023-03-13T09:36:43;99447.91;;;7.39;89.32
51147;BME280;37207;53.060;18.726;2023-03-13T09:39:10;99448.34;;;7.45;89.15
51147;BME280;37207;53.060;18.726;2023-03-13T09:42:15;99443.73;;;7.52;89.08
51147;BME280;37207;53.060;18.726;2023-03-13T09:45:15;99434.83;;;7.60;88.97
51147;BME280;37207;53.060;18.726;2023-03-13T09:47:50;99431.29;;;7.75;89.11
51147;BME280;37207;53.060;18.726;2023-03-13T09:50:22;99423.83;;;7.87;88.82
51147;BME280;37207;53.060;18.726;2023-03-13T09:52:54;99416.95;;;7.93;88.77
51147;BME280;37207;53.060;18.726;2023-03-13T09:55:26;99410.50;;;7.97;88.73
51147;BME280;37207;53.060;18.726;2023-03-13T09:57:59;99407.95;;;7.97;88.67
51147;BME280;37207;53.060;18.726;2023-03-13T10:00:36;99403.77;;;7.94;88.61
51147;BME280;37207;53.060;18.726;2023-03-13T10:05:46;99386.23;;;7.87;88.58
51147;BME280;37207;53.060;18.726;2023-03-13T10:08:17;99387.83;;;7.85;88.79
51147;BME280;37207;53.060;18.726;2023-03-13T10:10:49;99380.42;;;7.84;88.90
51147;BME280;37207;53.060;18.726;2023-03-13T10:13:31;99374.38;;;7.84;89.21
51147;BME280;37207;53.060;18.726;2023-03-13T10:16:17;99372.48;;;7.85;89.19
51147;BME280;37207;53.060;18.726;2023-03-13T10:18:48;99371.14;;;7.87;89.22
51147;BME280;37207;53.060;18.726;2023-03-13T10:21:20;99368.84;;;7.89;89.31
51147;BME280;37207;53.060;18.726;2023-03-13T10:23:54;99363.80;;;7.89;89.32
51147;BME280;37207;53.060;18.726;2023-03-13T10:26:26;99364.79;;;7.87;89.22
51147;BME280;37207;53.060;18.726;2023-03-13T10:28:55;99359.59;;;7.84;89.45
51147;BME280;37207;53.060;18.726;2023-03-13T10:31:31;99361.48;;;7.82;89.57
51147;BME280;37207;53.060;18.726;2023-03-13T10:34:09;99356.08;;;7.83;89.70
51147;BME280;37207;53.060;18.726;2023-03-13T10:36:45;99354.23;;;7.85;89.74
51147;BME280;37207;53.060;18.726;2023-03-13T10:39:17;99346.39;;;7.86;89.77
51147;BME280;37207;53.060;18.726;2023-03-13T10:41:44;99341.69;;;7.86;89.86
51147;BME280;37207;53.060;18.726;2023-03-13T10:44:22;99331.94;;;7.85;89.78
51147;BME280;37207;53.060;18.726;2023-03-13T10:46:49;99327.04;;;7.84;89.91
51147;BME280;37207;53.060;18.726;2023-03-13T10:49:17;99319.54;;;7.86;90.08
51147;BME280;37207;53.060;18.726;2023-03-13T10:52:03;99313.70;;;7.88;90.20
51147;BME280;37207;53.060;18.726;2023-03-13T10:54:32;99302.36;;;7.90;90.13
51147;BME280;37207;53.060;18.726;2023-03-13T10:59:51;99300.77;;;7.94;90.25
51147;BME280;37207;53.060;18.726;2023-03-13T11:02:27;99303.37;;;7.94;90.17
51147;BME280;37207;53.060;18.726;2023-03-13T11:04:57;99299.02;;;7.93;90.34
51147;BME280;37207;53.060;18.726;2023-03-13T11:10:22;99291.42;;;7.91;90.43
51147;BME280;37207;53.060;18.726;2023-03-13T11:12:54;99279.37;;;7.89;90.51
51147;BME280;37207;53.060;18.726;2023-03-13T11:15:24;99272.67;;;7.88;90.48
51147;BME280;37207;53.060;18.726;2023-03-13T11:20:36;99258.91;;;7.87;90.88
51147;BME280;37207;53.060;18.726;2023-03-13T11:23:28;99255.96;;;7.86;91.04
51147;BME280;37207;53.060;18.726;2023-03-13T11:26:25;99249.97;;;7.88;90.97
51147;BME280;37207;53.060;18.726;2023-03-13T11:29:08;99242.42;;;7.91;91.13
51147;BME280;37207;53.060;18.726;2023-03-13T11:31:47;99240.59;;;7.94;91.26
51147;BME280;37207;53.060;18.726;2023-03-13T11:34:46;99236.23;;;7.95;91.29
51147;BME280;37207;53.060;18.726;2023-03-13T11:37:17;99235.58;;;7.94;91.20
51147;BME280;37207;53.060;18.726;2023-03-13T11:54:20;99206.34;;;7.93;91.69
51147;BME280;37207;53.060;18.726;2023-03-13T11:56:54;99197.94;;;7.95;91.99
51147;BME280;37207;53.060;18.726;2023-03-13T11:59:33;99197.97;;;7.97;92.20
51147;BME280;37207;53.060;18.726;2023-03-13T12:02:17;99196.81;;;7.98;92.14
51147;BME280;37207;53.060;18.726;2023-03-13T12:04:53;99193.31;;;7.99;92.59
51147;BME280;37207;53.060;18.726;2023-03-13T12:10:17;99177.46;;;7.99;92.48
51147;BME280;37207;53.060;18.726;2023-03-13T12:13:02;99166.46;;;7.99;92.71
51147;BME280;37207;53.060;18.726;2023-03-13T12:15:46;99163.52;;;7.99;92.55
51147;BME280;37207;53.060;18.726;2023-03-13T12:18:27;99148.32;;;8.00;93.00
51147;BME280;37207;53.060;18.726;2023-03-13T12:21:12;99149.12;;;8.02;93.19
51147;BME280;37207;53.060;18.726;2023-03-13T12:29:16;99134.42;;;8.17;93.77
51147;BME280;37207;53.060;18.726;2023-03-13T12:37:38;99119.87;;;8.22;93.60
51147;BME280;37207;53.060;18.726;2023-03-13T12:42:57;99118.06;;;8.23;93.93
51147;BME280;37207;53.060;18.726;2023-03-13T12:45:28;99114.66;;;8.23;94.07
51147;BME280;37207;53.060;18.726;2023-03-13T12:48:14;99108.81;;;8.22;94.14
51147;BME280;37207;53.060;18.726;2023-03-13T12:57:03;99106.17;;;8.17;94.52
51147;BME280;37207;53.060;18.726;2023-03-13T12:59:37;99100.04;;;8.15;94.49
51147;BME280;37207;53.060;18.726;2023-03-13T13:02:22;99095.14;;;8.14;94.97
51147;BME280;37207;53.060;18.726;2023-03-13T13:04:51;99076.98;;;8.14;95.23
51147;BME280;37207;53.060;18.726;2023-03-13T13:07:21;99073.16;;;8.16;95.47
51147;BME280;37207;53.060;18.726;2023-03-13T13:12:41;99059.91;;;8.18;96.21
51147;BME280;37207;53.060;18.726;2023-03-13T13:18:00;99076.17;;;8.15;96.25
51147;BME280;37207;53.060;18.726;2023-03-13T13:20:39;99077.10;;;8.13;96.18
51147;BME280;37207;53.060;18.726;2023-03-13T13:23:26;99073.35;;;8.10;96.43
51147;BME280;37207;53.060;18.726;2023-03-13T13:36:58;99045.70;;;8.10;97.99
51147;BME280;37207;53.060;18.726;2023-03-13T13:41:54;99018.52;;;8.14;97.89
51147;BME280;37207;53.060;18.726;2023-03-13T13:44:26;99025.26;;;8.15;98.04
51147;BME280;37207;53.060;18.726;2023-03-13T13:46:57;99016.61;;;8.16;98.40
51147;BME280;37207;53.060;18.726;2023-03-13T13:49:33;99024.36;;;8.17;98.45
51147;BME280;37207;53.060;18.726;2023-03-13T13:57:19;99021.70;;;8.18;98.50
51147;BME280;37207;53.060;18.726;2023-03-13T14:02:30;99020.30;;;8.20;99.13
51147;BME280;37207;53.060;18.726;2023-03-13T14:05:01;99014.14;;;8.21;99.45
51147;BME280;37207;53.060;18.726;2023-03-13T14:07:50;99009.94;;;8.22;99.48
51147;BME280;37207;53.060;18.726;2023-03-13T14:10:41;99010.09;;;8.22;99.43
51147;BME280;37207;53.060;18.726;2023-03-13T14:13:16;99004.38;;;8.22;99.30
51147;BME280;37207;53.060;18.726;2023-03-13T14:15:52;98996.98;;;8.22;99.36
51147;BME280;37207;53.060;18.726;2023-03-13T14:18:29;98994.48;;;8.23;99.65
51147;BME280;37207;53.060;18.726;2023-03-13T14:21:00;98994.42;;;8.25;99.66
51147;BME280;37207;53.060;18.726;2023-03-13T14:26:09;98995.11;;;8.28;99.98
51147;BME280;37207;53.060;18.726;2023-03-13T14:28:39;98986.70;;;8.31;100.00
51147;BME280;37207;53.060;18.726;2023-03-13T14:31:08;99000.19;;;8.32;100.00
51147;BME280;37207;53.060;18.726;2023-03-13T14:33:34;99000.45;;;8.33;99.98
51147;BME280;37207;53.060;18.726;2023-03-13T14:36:01;98988.52;;;8.34;100.00
51147;BME280;37207;53.060;18.726;2023-03-13T14:38:28;98985.52;;;8.38;100.00
51147;BME280;37207;53.060;18.726;2023-03-13T14:40:55;98992.27;;;8.41;100.00
51147;BME280;37207;53.060;18.726;2023-03-13T14:43:41;98983.54;;;8.43;100.00
51147;BME280;37207;53.060;18.726;2023-03-13T14:46:27;98979.68;;;8.45;100.00
51147;BME280;37207;53.060;18.726;2023-03-13T14:49:04;98980.68;;;8.44;100.00
51147;BME280;37207;53.060;18.726;2023-03-13T14:51:32;98984.55;;;8.43;100.00
51147;BME280;37207;53.060;18.726;2023-03-13T14:54:03;98976.20;;;8.42;100.00
51147;BME280;37207;53.060;18.726;2023-03-13T14:56:35;98972.10;;;8.42;100.00